sensor_id;sensor_type;location;lat;lon;timestamp;P1;durP1;ratioP1;P2;durP2;ratioP2
24401;SDS011;12539;48.808;11.292;2022-11-03T00:01:07;5.53;;;3.03;;
24401;SDS011;12539;48.808;11.292;2022-11-03T00:03:33;8.50;;;4.03;;
24401;SDS011;12539;48.808;11.292;2022-11-03T00:05:58;4.22;;;3.20;;
24401;SDS011;12539;48.808;11.292;2022-11-03T00:08:40;7.63;;;3.70;;
24401;SDS011;12539;48.808;11.292;2022-11-03T00:13:34;6.57;;;3.53;;
24401;SDS011;12539;48.808;11.292;2022-11-03T00:16:00;5.90;;;3.55;;
24401;SDS011;12539;48.808;11.292;2022-11-03T00:18:25;7.10;;;3.72;;
24401;SDS011;12539;48.808;11.292;2022-11-03T00:21:01;5.28;;;3.50;;
24401;SDS011;12539;48.808;11.292;2022-11-03T00:23:29;6.53;;;2.97;;
24401;SDS011;12539;48.808;11.292;2022-11-03T00:26:06;9.05;;;3.33;;
24401;SDS011;12539;48.808;11.292;2022-11-03T00:28:37;7.30;;;3.55;;
24401;SDS011;12539;48.808;11.292;2022-11-03T00:31:07;7.50;;;3.50;;
24401;SDS011;12539;48.808;11.292;2022-11-03T00:33:35;6.88;;;3.38;;
24401;SDS011;12539;48.808;11.292;2022-11-03T00:36:02;4.97;;;3.53;;
24401;SDS011;12539;48.808;11.292;2022-11-03T00:38:28;6.00;;;3.38;;
24401;SDS011;12539;48.808;11.292;2022-11-03T00:43:21;6.25;;;2.80;;
24401;SDS011;12539;48.808;11.292;2022-11-03T00:45:47;7.20;;;3.70;;
24401;SDS011;12539;48.808;11.292;2022-11-03T00:48:13;7.13;;;3.55;;
24401;SDS011;12539;48.808;11.292;2022-11-03T00:53:32;5.72;;;3.10;;
24401;SDS011;12539;48.808;11.292;2022-11-03T00:56:17;4.82;;;3.00;;
24401;SDS011;12539;48.808;11.292;2022-11-03T00:58:48;7.22;;;2.95;;
24401;SDS011;12539;48.808;11.292;2022-11-03T01:01:15;4.40;;;2.60;;
24401;SDS011;12539;48.808;11.292;2022-11-03T01:03:44;10.55;;;4.60;;
24401;SDS011;12539;48.808;11.292;2022-11-03T01:06:31;5.15;;;3.55;;
24401;SDS011;12539;48.808;11.292;2022-11-03T01:09:26;7.40;;;3.58;;
24401;SDS011;12539;48.808;11.292;2022-11-03T01:12:15;5.90;;;3.28;;
24401;SDS011;12539;48.808;11.292;2022-11-03T01:17:17;6.97;;;3.45;;
24401;SDS011;12539;48.808;11.292;2022-11-03T01:19:46;7.63;;;3.78;;
24401;SDS011;12539;48.808;11.292;2022-11-03T01:22:13;7.43;;;3.70;;
24401;SDS011;12539;48.808;11.292;2022-11-03T01:24:40;5.20;;;3.42;;
24401;SDS011;12539;48.808;11.292;2022-11-03T01:27:09;8.13;;;4.53;;
24401;SDS011;12539;48.808;11.292;2022-11-03T01:29:37;6.65;;;3.83;;
24401;SDS011;12539;48.808;11.292;2022-11-03T01:32:03;5.88;;;2.75;;
24401;SDS011;12539;48.808;11.292;2022-11-03T01:34:29;5.45;;;3.35;;
24401;SDS011;12539;48.808;11.292;2022-11-03T01:36:55;4.80;;;3.00;;
24401;SDS011;12539;48.808;11.292;2022-11-03T01:39:21;4.47;;;2.78;;
24401;SDS011;12539;48.808;11.292;2022-11-03T01:41:48;9.13;;;3.28;;
24401;SDS011;12539;48.808;11.292;2022-11-03T01:52:00;6.38;;;3.17;;
24401;SDS011;12539;48.808;11.292;2022-11-03T01:54:32;7.72;;;3.55;;
24401;SDS011;12539;48.808;11.292;2022-11-03T01:57:00;7.80;;;3.65;;
24401;SDS011;12539;48.808;11.292;2022-11-03T01:59:31;6.57;;;3.33;;
24401;SDS011;12539;48.808;11.292;2022-11-03T02:01:57;8.23;;;3.55;;
24401;SDS011;12539;48.808;11.292;2022-11-03T02:04:24;6.57;;;3.10;;
24401;SDS011;12539;48.808;11.292;2022-11-03T02:06:53;5.53;;;3.30;;
24401;SDS011;12539;48.808;11.292;2022-11-03T02:09:29;6.00;;;3.35;;
24401;SDS011;12539;48.808;11.292;2022-11-03T02:11:55;9.80;;;4.20;;
24401;SDS011;12539;48.808;11.292;2022-11-03T02:14:30;8.07;;;3.75;;
24401;SDS011;12539;48.808;11.292;2022-11-03T02:16:58;8.88;;;3.38;;
24401;SDS011;12539;48.808;11.292;2022-11-03T02:19:39;4.50;;;2.83;;
24401;SDS011;12539;48.808;11.292;2022-11-03T02:28:05;5.53;;;3.08;;
24401;SDS011;12539;48.808;11.292;2022-11-03T02:36:09;5.90;;;3.95;;
24401;SDS011;12539;48.808;11.292;2022-11-03T02:38:53;4.50;;;3.13;;
24401;SDS011;12539;48.808;11.292;2022-11-03T02:41:20;4.73;;;3.50;;
24401;SDS011;12539;48.808;11.292;2022-11-03T02:43:48;8.02;;;3.40;;
24401;SDS011;12539;48.808;11.292;2022-11-03T02:46:14;7.28;;;3.33;;
24401;SDS011;12539;48.808;11.292;2022-11-03T02:48:41;8.10;;;3.35;;
24401;SDS011;12539;48.808;11.292;2022-11-03T02:51:07;6.07;;;3.38;;
24401;SDS011;12539;48.808;11.292;2022-11-03T02:53:35;4.35;;;3.03;;
24401;SDS011;12539;48.808;11.292;2022-11-03T02:56:09;7.07;;;3.50;;
24401;SDS011;12539;48.808;11.292;2022-11-03T02:58:51;7.85;;;3.38;;
24401;SDS011;12539;48.808;11.292;2022-11-03T03:01:27;7.47;;;3.83;;
24401;SDS011;12539;48.808;11.292;2022-11-03T03:04:12;5.30;;;3.53;;
24401;SDS011;12539;48.808;11.292;2022-11-03T03:06:50;6.00;;;4.25;;
24401;SDS011;12539;48.808;11.292;2022-11-03T03:09:42;10.50;;;4.70;;
24401;SDS011;12539;48.808;11.292;2022-11-03T03:12:15;6.18;;;3.13;;
24401;SDS011;12539;48.808;11.292;2022-11-03T03:14:44;6.75;;;3.28;;
24401;SDS011;12539;48.808;11.292;2022-11-03T03:17:16;6.95;;;4.07;;
24401;SDS011;12539;48.808;11.292;2022-11-03T03:20:09;12.73;;;5.78;;
24401;SDS011;12539;48.808;11.292;2022-11-03T03:25:31;7.85;;;4.10;;
24401;SDS011;12539;48.808;11.292;2022-11-03T03:28:00;11.18;;;4.72;;
24401;SDS011;12539;48.808;11.292;2022-11-03T03:30:30;7.07;;;4.55;;
24401;SDS011;12539;48.808;11.292;2022-11-03T03:32:59;6.75;;;4.35;;
24401;SDS011;12539;48.808;11.292;2022-11-03T03:35:28;5.82;;;4.07;;
24401;SDS011;12539;48.808;11.292;2022-11-03T03:38:07;6.72;;;4.40;;
24401;SDS011;12539;48.808;11.292;2022-11-03T03:40:43;7.07;;;3.83;;
24401;SDS011;12539;48.808;11.292;2022-11-03T03:43:12;10.13;;;4.55;;
24401;SDS011;12539;48.808;11.292;2022-11-03T03:45:39;8.68;;;4.85;;
24401;SDS011;12539;48.808;11.292;2022-11-03T03:48:08;6.15;;;4.03;;
24401;SDS011;12539;48.808;11.292;2022-11-03T03:50:34;8.85;;;4.65;;
24401;SDS011;12539;48.808;11.292;2022-11-03T03:53:03;10.50;;;4.72;;
24401;SDS011;12539;48.808;11.292;2022-11-03T03:55:35;5.25;;;3.95;;
24401;SDS011;12539;48.808;11.292;2022-11-03T03:58:03;6.45;;;4.30;;
24401;SDS011;12539;48.808;11.292;2022-11-03T04:00:29;6.32;;;4.40;;
24401;SDS011;12539;48.808;11.292;2022-11-03T04:02:56;8.32;;;5.13;;
24401;SDS011;12539;48.808;11.292;2022-11-03T04:05:25;9.30;;;4.80;;
24401;SDS011;12539;48.808;11.292;2022-11-03T04:07:51;8.15;;;4.95;;
24401;SDS011;12539;48.808;11.292;2022-11-03T04:10:20;10.70;;;5.53;;
24401;SDS011;12539;48.808;11.292;2022-11-03T04:12:47;13.50;;;6.43;;
24401;SDS011;12539;48.808;11.292;2022-11-03T04:15:31;13.40;;;6.13;;
24401;SDS011;12539;48.808;11.292;2022-11-03T04:18:06;9.52;;;6.88;;
24401;SDS011;12539;48.808;11.292;2022-11-03T04:20:51;10.48;;;4.82;;
24401;SDS011;12539;48.808;11.292;2022-11-03T04:23:35;8.55;;;5.28;;
24401;SDS011;12539;48.808;11.292;2022-11-03T04:26:00;8.95;;;5.10;;
24401;SDS011;12539;48.808;11.292;2022-11-03T04:28:27;10.55;;;6.07;;
24401;SDS011;12539;48.808;11.292;2022-11-03T04:30:57;10.30;;;5.07;;
24401;SDS011;12539;48.808;11.292;2022-11-03T04:33:23;9.27;;;6.28;;
24401;SDS011;12539;48.808;11.292;2022-11-03T04:35:50;9.88;;;5.53;;
24401;SDS011;12539;48.808;11.292;2022-11-03T04:38:20;8.98;;;5.28;;
24401;SDS011;12539;48.808;11.292;2022-11-03T04:40:57;10.75;;;6.57;;
24401;SDS011;12539;48.808;11.292;2022-11-03T04:43:33;10.52;;;5.78;;
24401;SDS011;12539;48.808;11.292;2022-11-03T04:46:01;14.38;;;6.70;;
24401;SDS011;12539;48.808;11.292;2022-11-03T04:48:27;15.43;;;7.30;;
24401;SDS011;12539;48.808;11.292;2022-11-03T04:50:54;12.52;;;6.25;;
24401;SDS011;12539;48.808;11.292;2022-11-03T04:53:25;13.25;;;6.68;;
24401;SDS011;12539;48.808;11.292;2022-11-03T04:55:54;13.60;;;6.82;;
24401;SDS011;12539;48.808;11.292;2022-11-03T04:58:27;9.55;;;6.50;;
24401;SDS011;12539;48.808;11.292;2022-11-03T05:00:58;15.43;;;8.23;;
24401;SDS011;12539;48.808;11.292;2022-11-03T05:03:29;10.68;;;5.80;;
24401;SDS011;12539;48.808;11.292;2022-11-03T05:06:09;9.70;;;5.38;;
24401;SDS011;12539;48.808;11.292;2022-11-03T05:11:19;15.70;;;7.88;;
24401;SDS011;12539;48.808;11.292;2022-11-03T05:13:51;19.15;;;7.45;;
24401;SDS011;12539;48.808;11.292;2022-11-03T05:16:17;37.85;;;11.77;;
24401;SDS011;12539;48.808;11.292;2022-11-03T05:18:43;7.95;;;4.10;;
24401;SDS011;12539;48.808;11.292;2022-11-03T05:21:12;12.63;;;6.18;;
24401;SDS011;12539;48.808;11.292;2022-11-03T05:23:45;23.58;;;9.10;;
24401;SDS011;12539;48.808;11.292;2022-11-03T05:26:21;8.13;;;5.65;;
24401;SDS011;12539;48.808;11.292;2022-11-03T05:28:51;11.35;;;6.97;;
24401;SDS011;12539;48.808;11.292;2022-11-03T05:31:25;15.35;;;8.00;;
24401;SDS011;12539;48.808;11.292;2022-11-03T05:34:02;23.00;;;7.50;;
24401;SDS011;12539;48.808;11.292;2022-11-03T05:36:38;14.75;;;6.32;;
24401;SDS011;12539;48.808;11.292;2022-11-03T05:41:58;19.27;;;9.02;;
24401;SDS011;12539;48.808;11.292;2022-11-03T05:44:35;34.33;;;12.02;;
24401;SDS011;12539;48.808;11.292;2022-11-03T05:47:23;32.78;;;11.15;;
24401;SDS011;12539;48.808;11.292;2022-11-03T05:49:52;21.70;;;9.55;;
24401;SDS011;12539;48.808;11.292;2022-11-03T05:52:24;15.32;;;7.97;;
24401;SDS011;12539;48.808;11.292;2022-11-03T05:54:56;17.30;;;8.38;;
24401;SDS011;12539;48.808;11.292;2022-11-03T05:57:23;16.63;;;8.35;;
24401;SDS011;12539;48.808;11.292;2022-11-03T05:59:52;23.33;;;8.80;;
24401;SDS011;12539;48.808;11.292;2022-11-03T06:05:10;17.25;;;7.85;;
24401;SDS011;12539;48.808;11.292;2022-11-03T06:07:44;17.30;;;7.68;;
24401;SDS011;12539;48.808;11.292;2022-11-03T06:10:44;15.65;;;7.70;;
24401;SDS011;12539;48.808;11.292;2022-11-03T06:13:09;16.48;;;7.35;;
24401;SDS011;12539;48.808;11.292;2022-11-03T06:15:39;16.63;;;8.23;;
24401;SDS011;12539;48.808;11.292;2022-11-03T06:18:40;22.38;;;9.27;;
24401;SDS011;12539;48.808;11.292;2022-11-03T06:21:23;14.65;;;7.50;;
24401;SDS011;12539;48.808;11.292;2022-11-03T06:23:48;16.00;;;8.55;;
24401;SDS011;12539;48.808;11.292;2022-11-03T06:26:16;12.77;;;7.03;;
24401;SDS011;12539;48.808;11.292;2022-11-03T06:28:44;20.30;;;9.23;;
24401;SDS011;12539;48.808;11.292;2022-11-03T06:31:28;19.85;;;7.60;;
24401;SDS011;12539;48.808;11.292;2022-11-03T06:33:56;13.18;;;8.10;;
24401;SDS011;12539;48.808;11.292;2022-11-03T06:36:30;23.45;;;9.38;;
24401;SDS011;12539;48.808;11.292;2022-11-03T06:39:05;15.80;;;7.68;;
24401;SDS011;12539;48.808;11.292;2022-11-03T06:41:41;17.00;;;8.98;;
24401;SDS011;12539;48.808;11.292;2022-11-03T06:44:21;10.82;;;6.50;;
24401;SDS011;12539;48.808;11.292;2022-11-03T06:47:00;12.82;;;6.88;;
24401;SDS011;12539;48.808;11.292;2022-11-03T06:49:38;13.60;;;7.80;;
24401;SDS011;12539;48.808;11.292;2022-11-03T06:52:06;20.67;;;10.68;;
24401;SDS011;12539;48.808;11.292;2022-11-03T06:54:47;16.17;;;9.73;;
24401;SDS011;12539;48.808;11.292;2022-11-03T06:57:14;17.17;;;9.40;;
24401;SDS011;12539;48.808;11.292;2022-11-03T06:59:42;12.65;;;6.78;;
24401;SDS011;12539;48.808;11.292;2022-11-03T07:02:24;14.95;;;7.75;;
24401;SDS011;12539;48.808;11.292;2022-11-03T07:05:25;13.18;;;7.25;;
24401;SDS011;12539;48.808;11.292;2022-11-03T07:07:53;10.05;;;5.68;;
24401;SDS011;12539;48.808;11.292;2022-11-03T07:10:26;15.07;;;6.57;;
24401;SDS011;12539;48.808;11.292;2022-11-03T07:12:54;11.68;;;6.53;;
24401;SDS011;12539;48.808;11.292;2022-11-03T07:17:57;17.48;;;7.22;;
24401;SDS011;12539;48.808;11.292;2022-11-03T07:20:24;64.93;;;12.52;;
24401;SDS011;12539;48.808;11.292;2022-11-03T07:22:49;30.77;;;6.43;;
24401;SDS011;12539;48.808;11.292;2022-11-03T07:25:18;35.42;;;7.25;;
24401;SDS011;12539;48.808;11.292;2022-11-03T07:27:49;54.90;;;13.18;;
24401;SDS011;12539;48.808;11.292;2022-11-03T07:30:32;12.73;;;6.22;;
24401;SDS011;12539;48.808;11.292;2022-11-03T07:33:10;18.83;;;8.13;;
24401;SDS011;12539;48.808;11.292;2022-11-03T07:35:44;13.63;;;6.53;;
24401;SDS011;12539;48.808;11.292;2022-11-03T07:38:22;9.85;;;6.00;;
24401;SDS011;12539;48.808;11.292;2022-11-03T07:40:49;11.27;;;6.18;;
24401;SDS011;12539;48.808;11.292;2022-11-03T07:45:51;14.63;;;8.25;;
24401;SDS011;12539;48.808;11.292;2022-11-03T07:51:19;6.90;;;4.15;;
24401;SDS011;12539;48.808;11.292;2022-11-03T07:53:46;18.10;;;9.77;;
24401;SDS011;12539;48.808;11.292;2022-11-03T07:56:17;11.02;;;5.65;;
24401;SDS011;12539;48.808;11.292;2022-11-03T07:58:49;11.35;;;6.25;;
24401;SDS011;12539;48.808;11.292;2022-11-03T08:03:48;29.42;;;9.27;;
24401;SDS011;12539;48.808;11.292;2022-11-03T08:06:15;49.85;;;13.68;;
24401;SDS011;12539;48.808;11.292;2022-11-03T08:08:40;22.30;;;8.98;;
24401;SDS011;12539;48.808;11.292;2022-11-03T08:11:06;30.85;;;11.65;;
24401;SDS011;12539;48.808;11.292;2022-11-03T08:13:32;27.67;;;9.55;;
24401;SDS011;12539;48.808;11.292;2022-11-03T08:15:58;25.48;;;10.88;;
24401;SDS011;12539;48.808;11.292;2022-11-03T08:18:24;39.25;;;12.80;;
24401;SDS011;12539;48.808;11.292;2022-11-03T08:20:49;38.28;;;13.07;;
24401;SDS011;12539;48.808;11.292;2022-11-03T08:23:15;28.50;;;10.40;;
24401;SDS011;12539;48.808;11.292;2022-11-03T08:25:41;35.40;;;14.68;;
24401;SDS011;12539;48.808;11.292;2022-11-03T08:28:07;12.25;;;7.10;;
24401;SDS011;12539;48.808;11.292;2022-11-03T08:30:33;21.42;;;11.88;;
24401;SDS011;12539;48.808;11.292;2022-11-03T08:32:59;21.73;;;9.75;;
24401;SDS011;12539;48.808;11.292;2022-11-03T08:35:25;19.48;;;11.65;;
24401;SDS011;12539;48.808;11.292;2022-11-03T08:37:50;10.85;;;6.53;;
24401;SDS011;12539;48.808;11.292;2022-11-03T08:40:16;17.17;;;10.30;;
24401;SDS011;12539;48.808;11.292;2022-11-03T08:42:42;11.95;;;7.40;;
24401;SDS011;12539;48.808;11.292;2022-11-03T08:45:08;15.38;;;10.65;;
24401;SDS011;12539;48.808;11.292;2022-11-03T08:47:35;14.27;;;9.38;;
24401;SDS011;12539;48.808;11.292;2022-11-03T08:50:01;11.15;;;8.82;;
24401;SDS011;12539;48.808;11.292;2022-11-03T08:52:27;16.27;;;12.40;;
24401;SDS011;12539;48.808;11.292;2022-11-03T08:54:53;17.83;;;11.68;;
24401;SDS011;12539;48.808;11.292;2022-11-03T08:57:19;16.23;;;11.18;;
24401;SDS011;12539;48.808;11.292;2022-11-03T08:59:44;20.58;;;15.25;;
24401;SDS011;12539;48.808;11.292;2022-11-03T09:02:10;19.55;;;12.43;;
24401;SDS011;12539;48.808;11.292;2022-11-03T09:04:36;12.93;;;9.18;;
24401;SDS011;12539;48.808;11.292;2022-11-03T09:07:01;18.95;;;14.00;;
24401;SDS011;12539;48.808;11.292;2022-11-03T09:09:27;17.67;;;10.43;;
24401;SDS011;12539;48.808;11.292;2022-11-03T09:11:53;13.43;;;10.52;;
24401;SDS011;12539;48.808;11.292;2022-11-03T09:14:18;18.38;;;12.63;;
24401;SDS011;12539;48.808;11.292;2022-11-03T09:16:44;15.32;;;11.07;;
24401;SDS011;12539;48.808;11.292;2022-11-03T09:19:10;15.88;;;12.50;;
24401;SDS011;12539;48.808;11.292;2022-11-03T09:21:35;18.83;;;14.13;;
24401;SDS011;12539;48.808;11.292;2022-11-03T09:24:01;15.27;;;12.05;;
24401;SDS011;12539;48.808;11.292;2022-11-03T09:26:27;15.73;;;11.93;;
24401;SDS011;12539;48.808;11.292;2022-11-03T09:28:52;15.57;;;11.13;;
24401;SDS011;12539;48.808;11.292;2022-11-03T09:31:18;15.65;;;11.13;;
24401;SDS011;12539;48.808;11.292;2022-11-03T09:33:44;14.23;;;11.60;;
24401;SDS011;12539;48.808;11.292;2022-11-03T09:36:10;15.20;;;11.52;;
24401;SDS011;12539;48.808;11.292;2022-11-03T09:38:35;17.85;;;11.30;;
24401;SDS011;12539;48.808;11.292;2022-11-03T09:41:02;13.23;;;10.90;;
24401;SDS011;12539;48.808;11.292;2022-11-03T09:43:30;18.05;;;12.00;;
24401;SDS011;12539;48.808;11.292;2022-11-03T09:45:56;11.13;;;8.23;;
24401;SDS011;12539;48.808;11.292;2022-11-03T09:48:23;14.85;;;10.80;;
24401;SDS011;12539;48.808;11.292;2022-11-03T09:50:50;16.33;;;12.07;;
24401;SDS011;12539;48.808;11.292;2022-11-03T09:53:18;17.52;;;13.02;;
24401;SDS011;12539;48.808;11.292;2022-11-03T09:55:45;18.75;;;12.77;;
24401;SDS011;12539;48.808;11.292;2022-11-03T09:58:14;17.42;;;11.88;;
24401;SDS011;12539;48.808;11.292;2022-11-03T10:00:41;14.55;;;11.93;;
24401;SDS011;12539;48.808;11.292;2022-11-03T10:03:11;19.17;;;13.18;;
24401;SDS011;12539;48.808;11.292;2022-11-03T10:05:38;13.75;;;9.48;;
24401;SDS011;12539;48.808;11.292;2022-11-03T10:08:06;13.82;;;10.93;;
24401;SDS011;12539;48.808;11.292;2022-11-03T10:10:36;14.15;;;11.50;;
24401;SDS011;12539;48.808;11.292;2022-11-03T10:13:02;19.88;;;13.18;;
24401;SDS011;12539;48.808;11.292;2022-11-03T10:15:32;13.80;;;10.90;;
24401;SDS011;12539;48.808;11.292;2022-11-03T10:17:59;14.00;;;11.18;;
24401;SDS011;12539;48.808;11.292;2022-11-03T10:20:26;16.75;;;12.00;;
24401;SDS011;12539;48.808;11.292;2022-11-03T10:22:53;14.27;;;11.52;;
24401;SDS011;12539;48.808;11.292;2022-11-03T10:31:19;14.18;;;12.00;;
24401;SDS011;12539;48.808;11.292;2022-11-03T10:38:39;17.70;;;13.10;;
24401;SDS011;12539;48.808;11.292;2022-11-03T10:41:12;13.18;;;9.50;;
24401;SDS011;12539;48.808;11.292;2022-11-03T10:43:41;14.15;;;11.32;;
24401;SDS011;12539;48.808;11.292;2022-11-03T10:48:42;10.52;;;9.27;;
24401;SDS011;12539;48.808;11.292;2022-11-03T10:51:11;10.32;;;8.23;;
24401;SDS011;12539;48.808;11.292;2022-11-03T10:53:38;14.98;;;10.35;;
24401;SDS011;12539;48.808;11.292;2022-11-03T10:56:04;11.07;;;9.15;;
24401;SDS011;12539;48.808;11.292;2022-11-03T10:58:30;11.50;;;9.95;;
24401;SDS011;12539;48.808;11.292;2022-11-03T11:00:58;14.02;;;10.27;;
24401;SDS011;12539;48.808;11.292;2022-11-03T11:03:24;10.70;;;9.30;;
24401;SDS011;12539;48.808;11.292;2022-11-03T11:05:49;16.35;;;11.57;;
24401;SDS011;12539;48.808;11.292;2022-11-03T11:08:18;11.27;;;9.07;;
24401;SDS011;12539;48.808;11.292;2022-11-03T11:10:47;12.93;;;11.13;;
24401;SDS011;12539;48.808;11.292;2022-11-03T11:15:50;12.82;;;8.55;;
24401;SDS011;12539;48.808;11.292;2022-11-03T11:20:52;12.00;;;9.32;;
24401;SDS011;12539;48.808;11.292;2022-11-03T11:23:44;9.85;;;7.43;;
24401;SDS011;12539;48.808;11.292;2022-11-03T11:28:38;11.23;;;8.82;;
24401;SDS011;12539;48.808;11.292;2022-11-03T11:31:31;14.43;;;10.95;;
24401;SDS011;12539;48.808;11.292;2022-11-03T11:36:44;13.48;;;11.00;;
24401;SDS011;12539;48.808;11.292;2022-11-03T11:39:11;11.93;;;9.23;;
24401;SDS011;12539;48.808;11.292;2022-11-03T11:53:16;11.90;;;9.88;;
24401;SDS011;12539;48.808;11.292;2022-11-03T11:57:55;16.70;;;11.43;;
24401;SDS011;12539;48.808;11.292;2022-11-03T12:00:24;10.95;;;9.30;;
24401;SDS011;12539;48.808;11.292;2022-11-03T12:02:52;17.02;;;10.73;;
24401;SDS011;12539;48.808;11.292;2022-11-03T12:07:55;12.50;;;10.75;;
24401;SDS011;12539;48.808;11.292;2022-11-03T12:10:25;19.00;;;13.80;;
24401;SDS011;12539;48.808;11.292;2022-11-03T12:12:53;13.85;;;11.35;;
24401;SDS011;12539;48.808;11.292;2022-11-03T12:20:54;16.33;;;12.48;;
24401;SDS011;12539;48.808;11.292;2022-11-03T12:23:36;10.48;;;8.63;;
24401;SDS011;12539;48.808;11.292;2022-11-03T12:26:03;13.18;;;9.68;;
24401;SDS011;12539;48.808;11.292;2022-11-03T12:28:30;13.32;;;10.55;;
24401;SDS011;12539;48.808;11.292;2022-11-03T12:30:59;17.80;;;11.35;;
24401;SDS011;12539;48.808;11.292;2022-11-03T12:33:26;19.80;;;14.18;;
24401;SDS011;12539;48.808;11.292;2022-11-03T12:35:52;13.02;;;10.15;;
24401;SDS011;12539;48.808;11.292;2022-11-03T12:38:19;14.20;;;10.38;;
24401;SDS011;12539;48.808;11.292;2022-11-03T12:40:44;15.30;;;11.48;;
24401;SDS011;12539;48.808;11.292;2022-11-03T12:43:10;13.52;;;9.25;;
24401;SDS011;12539;48.808;11.292;2022-11-03T12:45:36;13.93;;;9.55;;
24401;SDS011;12539;48.808;11.292;2022-11-03T12:48:01;16.38;;;11.73;;
24401;SDS011;12539;48.808;11.292;2022-11-03T12:50:27;11.02;;;9.35;;
24401;SDS011;12539;48.808;11.292;2022-11-03T12:52:53;16.17;;;12.15;;
24401;SDS011;12539;48.808;11.292;2022-11-03T12:55:19;11.93;;;10.27;;
24401;SDS011;12539;48.808;11.292;2022-11-03T12:57:44;19.13;;;14.38;;
24401;SDS011;12539;48.808;11.292;2022-11-03T13:00:10;12.68;;;11.13;;
24401;SDS011;12539;48.808;11.292;2022-11-03T13:02:37;14.80;;;12.25;;
24401;SDS011;12539;48.808;11.292;2022-11-03T13:05:03;14.32;;;11.60;;
24401;SDS011;12539;48.808;11.292;2022-11-03T13:07:29;13.85;;;11.77;;
24401;SDS011;12539;48.808;11.292;2022-11-03T13:09:55;11.85;;;9.35;;
24401;SDS011;12539;48.808;11.292;2022-11-03T13:12:21;26.35;;;16.85;;
24401;SDS011;12539;48.808;11.292;2022-11-03T13:14:59;24.45;;;17.73;;
24401;SDS011;12539;48.808;11.292;2022-11-03T13:19:52;17.40;;;13.13;;
24401;SDS011;12539;48.808;11.292;2022-11-03T13:22:18;19.00;;;13.60;;
24401;SDS011;12539;48.808;11.292;2022-11-03T13:24:44;14.38;;;11.07;;
24401;SDS011;12539;48.808;11.292;2022-11-03T13:27:10;16.92;;;12.80;;
24401;SDS011;12539;48.808;11.292;2022-11-03T13:29:36;14.57;;;10.57;;
24401;SDS011;12539;48.808;11.292;2022-11-03T13:32:02;22.90;;;11.82;;
24401;SDS011;12539;48.808;11.292;2022-11-03T13:34:28;14.15;;;10.38;;
24401;SDS011;12539;48.808;11.292;2022-11-03T13:36:54;16.08;;;12.20;;
24401;SDS011;12539;48.808;11.292;2022-11-03T13:39:20;12.93;;;9.98;;
24401;SDS011;12539;48.808;11.292;2022-11-03T13:41:46;13.57;;;10.38;;
24401;SDS011;12539;48.808;11.292;2022-11-03T13:44:12;16.25;;;12.63;;
24401;SDS011;12539;48.808;11.292;2022-11-03T13:46:37;15.75;;;10.63;;
24401;SDS011;12539;48.808;11.292;2022-11-03T13:49:03;14.85;;;12.05;;
24401;SDS011;12539;48.808;11.292;2022-11-03T13:51:29;13.55;;;10.82;;
24401;SDS011;12539;48.808;11.292;2022-11-03T13:53:54;13.43;;;10.93;;
24401;SDS011;12539;48.808;11.292;2022-11-03T13:56:20;14.57;;;10.93;;
24401;SDS011;12539;48.808;11.292;2022-11-03T13:58:46;15.02;;;11.63;;
24401;SDS011;12539;48.808;11.292;2022-11-03T14:01:12;19.17;;;11.02;;
24401;SDS011;12539;48.808;11.292;2022-11-03T14:03:38;13.65;;;9.52;;
24401;SDS011;12539;48.808;11.292;2022-11-03T14:06:04;12.48;;;10.30;;
24401;SDS011;12539;48.808;11.292;2022-11-03T14:08:39;13.27;;;10.05;;
24401;SDS011;12539;48.808;11.292;2022-11-03T14:11:05;10.90;;;8.77;;
24401;SDS011;12539;48.808;11.292;2022-11-03T14:13:49;17.80;;;12.48;;
24401;SDS011;12539;48.808;11.292;2022-11-03T14:16:15;11.40;;;10.23;;
24401;SDS011;12539;48.808;11.292;2022-11-03T14:18:41;13.38;;;10.90;;
24401;SDS011;12539;48.808;11.292;2022-11-03T14:21:06;15.15;;;10.75;;
24401;SDS011;12539;48.808;11.292;2022-11-03T14:23:32;10.60;;;9.10;;
24401;SDS011;12539;48.808;11.292;2022-11-03T14:25:57;13.75;;;10.95;;
24401;SDS011;12539;48.808;11.292;2022-11-03T14:28:23;12.85;;;10.75;;
24401;SDS011;12539;48.808;11.292;2022-11-03T14:30:49;13.10;;;9.90;;
24401;SDS011;12539;48.808;11.292;2022-11-03T14:33:15;14.55;;;10.88;;
24401;SDS011;12539;48.808;11.292;2022-11-03T14:35:41;15.07;;;12.52;;
24401;SDS011;12539;48.808;11.292;2022-11-03T14:38:06;16.45;;;12.65;;
24401;SDS011;12539;48.808;11.292;2022-11-03T14:40:32;9.93;;;8.25;;
24401;SDS011;12539;48.808;11.292;2022-11-03T14:43:16;12.40;;;10.88;;
24401;SDS011;12539;48.808;11.292;2022-11-03T14:45:42;17.30;;;12.18;;
24401;SDS011;12539;48.808;11.292;2022-11-03T14:48:07;15.68;;;11.30;;
24401;SDS011;12539;48.808;11.292;2022-11-03T14:50:33;11.07;;;8.52;;
24401;SDS011;12539;48.808;11.292;2022-11-03T14:52:59;19.05;;;13.10;;
24401;SDS011;12539;48.808;11.292;2022-11-03T14:55:24;16.05;;;12.25;;
24401;SDS011;12539;48.808;11.292;2022-11-03T14:57:50;10.18;;;8.32;;
24401;SDS011;12539;48.808;11.292;2022-11-03T15:00:16;11.52;;;9.30;;
24401;SDS011;12539;48.808;11.292;2022-11-03T15:02:41;19.08;;;13.18;;
24401;SDS011;12539;48.808;11.292;2022-11-03T15:05:07;12.05;;;9.13;;
24401;SDS011;12539;48.808;11.292;2022-11-03T15:07:53;16.63;;;12.77;;
24401;SDS011;12539;48.808;11.292;2022-11-03T15:13:03;13.48;;;10.05;;
24401;SDS011;12539;48.808;11.292;2022-11-03T15:15:29;15.02;;;11.60;;
24401;SDS011;12539;48.808;11.292;2022-11-03T15:17:54;17.10;;;12.18;;
24401;SDS011;12539;48.808;11.292;2022-11-03T15:20:20;15.70;;;12.75;;
24401;SDS011;12539;48.808;11.292;2022-11-03T15:22:46;15.23;;;11.63;;
24401;SDS011;12539;48.808;11.292;2022-11-03T15:25:12;17.17;;;12.90;;
24401;SDS011;12539;48.808;11.292;2022-11-03T15:27:37;13.65;;;10.30;;
24401;SDS011;12539;48.808;11.292;2022-11-03T15:30:04;18.35;;;13.82;;
24401;SDS011;12539;48.808;11.292;2022-11-03T15:32:31;17.80;;;13.38;;
24401;SDS011;12539;48.808;11.292;2022-11-03T15:34:57;12.23;;;9.60;;
24401;SDS011;12539;48.808;11.292;2022-11-03T15:37:23;18.20;;;11.82;;
24401;SDS011;12539;48.808;11.292;2022-11-03T15:39:49;22.75;;;15.20;;
24401;SDS011;12539;48.808;11.292;2022-11-03T15:42:15;18.73;;;14.63;;
24401;SDS011;12539;48.808;11.292;2022-11-03T15:44:41;19.63;;;13.85;;
24401;SDS011;12539;48.808;11.292;2022-11-03T15:47:07;26.05;;;16.17;;
24401;SDS011;12539;48.808;11.292;2022-11-03T15:49:32;19.35;;;13.90;;
24401;SDS011;12539;48.808;11.292;2022-11-03T15:51:58;21.88;;;14.70;;
24401;SDS011;12539;48.808;11.292;2022-11-03T15:54:24;22.95;;;14.65;;
24401;SDS011;12539;48.808;11.292;2022-11-03T15:56:49;21.38;;;14.88;;
24401;SDS011;12539;48.808;11.292;2022-11-03T15:59:15;15.20;;;12.43;;
24401;SDS011;12539;48.808;11.292;2022-11-03T16:01:40;16.70;;;12.63;;
24401;SDS011;12539;48.808;11.292;2022-11-03T16:04:06;20.30;;;13.80;;
24401;SDS011;12539;48.808;11.292;2022-11-03T16:06:32;20.13;;;13.95;;
24401;SDS011;12539;48.808;11.292;2022-11-03T16:08:58;23.63;;;16.30;;
24401;SDS011;12539;48.808;11.292;2022-11-03T16:11:23;19.80;;;13.73;;
24401;SDS011;12539;48.808;11.292;2022-11-03T16:13:49;20.45;;;14.48;;